Terminal Aerodrome Forecast
Issued by NWS Tampa Bay Area, FL

Home | Current Version | Previous Version | Text Only | Print | Product List | Glossary On
Versions: 1 2 3 4 5 6 7 8 9 10 11 12
519
FTUS42 KTBW 300539
TAFSRQ
TAF
KSRQ 300539Z 3006/3106 VRB04KT P6SM SCT070
     FM301300 15006KT P6SM FEW250
     FM301500 17010KT P6SM FEW035 FEW250
     FM302000 22014G19KT P6SM FEW060 FEW250=

USA.gov is the U.S. government's official web portal to all federal, state and local government web resources and services.